createdAt,value
2022-11-22T00:01:34.000Z,3.20
2022-11-22T00:04:21.762Z,2.70
2022-11-22T00:07:12.440Z,2.83
2022-11-22T00:10:00.223Z,3.47
2022-11-22T00:12:48.084Z,2.40
2022-11-22T00:15:35.824Z,2.33
2022-11-22T00:18:23.447Z,1.83
2022-11-22T00:21:11.127Z,2.53
2022-11-22T00:23:58.898Z,2.55
2022-11-22T00:26:48.831Z,2.63
2022-11-22T00:29:36.443Z,3.17
2022-11-22T00:32:24.253Z,2.47
2022-11-22T00:35:13.188Z,2.88
2022-11-22T00:38:00.843Z,2.95
2022-11-22T00:40:48.445Z,2.03
2022-11-22T00:43:36.195Z,2.33
2022-11-22T00:46:26.429Z,2.13
2022-11-22T00:49:14.297Z,2.30
2022-11-22T00:52:01.908Z,2.30
2022-11-22T00:54:54.463Z,2.67
2022-11-22T00:57:42.714Z,3.50
2022-11-22T01:00:30.642Z,5.93
2022-11-22T01:03:18.455Z,5.25
2022-11-22T01:06:06.227Z,5.68
2022-11-22T01:08:53.874Z,4.50
2022-11-22T01:11:44.685Z,5.18
2022-11-22T01:14:38.855Z,3.83
2022-11-22T01:17:29.137Z,4.30
2022-11-22T01:20:30.526Z,3.55
2022-11-22T01:23:26.945Z,4.40
2022-11-22T01:26:14.657Z,4.43
2022-11-22T01:29:04.395Z,4.75
2022-11-22T01:31:54.847Z,4.30
2022-11-22T01:34:42.578Z,5.95
2022-11-22T01:37:30.189Z,5.78
2022-11-22T01:40:18.016Z,6.20
2022-11-22T01:43:35.612Z,6.32
2022-11-22T01:46:36.439Z,7.45
2022-11-22T01:49:30.570Z,7.28
2022-11-22T01:52:21.586Z,7.32
2022-11-22T01:55:12.997Z,9.18
2022-11-22T01:58:01.298Z,9.60
2022-11-22T02:00:51.601Z,8.07
2022-11-22T02:03:46.163Z,7.25
2022-11-22T02:07:10.430Z,7.30
2022-11-22T02:09:58.463Z,6.25
2022-11-22T02:12:46.228Z,8.50
2022-11-22T02:15:35.900Z,7.22
2022-11-22T02:18:23.616Z,8.85
2022-11-22T02:21:14.104Z,10.95
2022-11-22T02:24:13.725Z,11.07
2022-11-22T02:27:01.605Z,12.27
2022-11-22T02:29:49.388Z,12.52
2022-11-22T02:32:37.065Z,9.68
2022-11-22T02:35:27.294Z,9.07
2022-11-22T02:38:22.712Z,6.20
2022-11-22T02:41:12.594Z,5.80
2022-11-22T02:44:00.339Z,4.85
2022-11-22T02:46:55.663Z,6.03
2022-11-22T02:49:43.412Z,4.70
2022-11-22T02:52:31.038Z,5.28
2022-11-22T02:55:18.737Z,5.65
2022-11-22T02:58:09.218Z,6.25
2022-11-22T03:00:57.007Z,5.93
2022-11-22T03:03:44.815Z,6.22
2022-11-22T03:06:32.554Z,8.55
2022-11-22T03:09:20.288Z,6.93
2022-11-22T03:12:08.117Z,6.75
2022-11-22T03:14:55.748Z,6.93
2022-11-22T03:17:43.474Z,7.45
2022-11-22T03:20:32.536Z,7.35
2022-11-22T03:23:20.251Z,7.70
2022-11-22T03:26:10.125Z,8.23
2022-11-22T03:28:58.034Z,11.07
2022-11-22T03:31:45.899Z,14.52
2022-11-22T03:34:33.675Z,14.35
2022-11-22T03:37:22.457Z,10.50
2022-11-22T03:40:10.572Z,10.43
2022-11-22T03:43:02.843Z,11.80
2022-11-22T03:48:41.036Z,19.67
2022-11-22T03:51:28.750Z,17.50
2022-11-22T03:54:16.613Z,8.35
2022-11-22T03:57:05.145Z,8.15
2022-11-22T03:59:52.822Z,12.10
2022-11-22T04:02:40.566Z,10.07
2022-11-22T04:05:28.241Z,7.65
2022-11-22T04:08:16.103Z,7.50
2022-11-22T04:11:03.814Z,10.75
2022-11-22T04:14:10.049Z,12.23
2022-11-22T04:16:57.947Z,9.32
2022-11-22T04:20:05.510Z,9.40
2022-11-22T04:22:58.310Z,9.82
2022-11-22T04:25:52.066Z,8.32
2022-11-22T04:29:09.207Z,11.90
2022-11-22T04:32:09.811Z,10.90
2022-11-22T04:34:58.090Z,8.55
2022-11-22T04:37:52.160Z,12.43
2022-11-22T04:40:40.697Z,19.98
2022-11-22T04:43:48.930Z,14.05
2022-11-22T04:46:36.595Z,8.20
2022-11-22T04:49:24.433Z,6.53
2022-11-22T04:52:30.801Z,8.57
2022-11-22T04:55:20.705Z,10.27
2022-11-22T04:58:08.589Z,10.50
2022-11-22T05:00:56.584Z,16.23
2022-11-22T05:03:44.264Z,18.52
2022-11-22T05:06:32.009Z,15.63
2022-11-22T05:09:19.771Z,11.60
2022-11-22T05:12:10.297Z,25.95
2022-11-22T05:14:57.829Z,39.47
2022-11-22T05:17:45.514Z,17.27
2022-11-22T05:20:35.502Z,10.38
2022-11-22T05:23:42.424Z,8.43
2022-11-22T05:26:32.699Z,10.35
2022-11-22T05:29:20.502Z,8.25
2022-11-22T05:32:08.208Z,9.70
2022-11-22T05:34:55.987Z,8.48
2022-11-22T05:37:43.695Z,8.00
2022-11-22T05:40:31.529Z,8.27
2022-11-22T05:43:19.150Z,10.70
2022-11-22T05:46:12.652Z,10.75
2022-11-22T05:49:00.344Z,11.20
2022-11-22T05:51:48.043Z,10.60
2022-11-22T05:54:35.746Z,12.80
2022-11-22T05:57:23.630Z,15.43
2022-11-22T06:00:11.790Z,15.88
2022-11-22T06:03:04.277Z,12.90
2022-11-22T06:05:52.993Z,11.07
2022-11-22T06:08:43.542Z,10.93
2022-11-22T06:11:31.256Z,11.27
2022-11-22T06:14:19.054Z,9.75
2022-11-22T06:17:06.668Z,9.68
2022-11-22T06:19:54.351Z,10.07
2022-11-22T06:22:42.026Z,8.65
2022-11-22T06:25:29.793Z,8.43
2022-11-22T06:28:17.465Z,7.95
2022-11-22T06:31:14.310Z,7.45
2022-11-22T06:34:02.167Z,8.95
2022-11-22T06:36:49.821Z,13.20
2022-11-22T06:39:38.038Z,8.95
2022-11-22T06:42:25.832Z,7.43
2022-11-22T06:45:13.612Z,5.72
2022-11-22T06:48:01.296Z,6.05
2022-11-22T06:50:58.142Z,5.07
2022-11-22T06:53:47.820Z,4.60
2022-11-22T06:56:40.832Z,3.83
2022-11-22T06:59:28.884Z,4.43
2022-11-22T07:02:17.481Z,4.43
2022-11-22T07:08:14.092Z,6.85
2022-11-22T07:11:06.823Z,7.57
2022-11-22T07:13:59.215Z,6.88
2022-11-22T07:16:51.419Z,5.55
2022-11-22T07:19:39.060Z,6.40
2022-11-22T07:22:29.664Z,8.05
2022-11-22T07:25:17.333Z,7.00
2022-11-22T07:28:08.191Z,7.28
2022-11-22T07:31:04.011Z,5.93
2022-11-22T07:33:51.757Z,5.07
2022-11-22T07:36:39.387Z,4.53
2022-11-22T07:39:27.078Z,5.43
2022-11-22T07:42:21.149Z,5.47
2022-11-22T07:45:11.637Z,5.32
2022-11-22T07:48:00.675Z,2.88
2022-11-22T07:50:50.575Z,2.17
2022-11-22T07:53:38.299Z,2.05
2022-11-22T07:56:26.169Z,1.70
2022-11-22T07:59:13.916Z,1.85
2022-11-22T08:02:03.184Z,2.15
2022-11-22T08:04:51.434Z,2.13
2022-11-22T08:07:39.134Z,2.45
2022-11-22T08:10:26.993Z,2.97
2022-11-22T08:13:14.701Z,2.72
2022-11-22T08:16:06.221Z,1.85
2022-11-22T08:18:54.203Z,1.58
2022-11-22T08:21:43.119Z,1.88
2022-11-22T08:24:33.041Z,2.33
2022-11-22T08:27:20.655Z,1.58
2022-11-22T08:30:09.879Z,1.20
2022-11-22T08:32:57.604Z,1.42
2022-11-22T08:35:51.058Z,1.10
2022-11-22T08:38:39.526Z,0.98
2022-11-22T08:41:30.078Z,1.20
2022-11-22T08:44:17.754Z,0.73
2022-11-22T08:47:07.741Z,0.88
2022-11-22T08:49:55.393Z,0.68
2022-11-22T08:52:43.096Z,0.88
2022-11-22T08:55:30.804Z,0.77
2022-11-22T08:58:18.575Z,1.02
2022-11-22T09:01:10.009Z,0.80
2022-11-22T09:03:57.688Z,0.80
2022-11-22T09:09:53.058Z,0.63
2022-11-22T09:12:46.584Z,0.30
2022-11-22T09:15:37.040Z,0.40
2022-11-22T09:18:24.651Z,0.60
2022-11-22T09:21:16.131Z,0.82
2022-11-22T09:24:04.032Z,0.20
2022-11-22T09:26:51.686Z,0.60
2022-11-22T09:29:39.322Z,2.25
2022-11-22T09:32:30.766Z,1.35
2022-11-22T09:35:21.320Z,2.00
2022-11-22T09:38:09.124Z,1.33
2022-11-22T09:40:58.309Z,0.98
2022-11-22T09:44:07.142Z,0.40
2022-11-22T09:47:35.091Z,0.55
2022-11-22T09:50:53.259Z,0.20
2022-11-22T09:54:11.242Z,0.50
2022-11-22T09:57:04.624Z,0.82
2022-11-22T10:00:05.434Z,0.50
2022-11-22T10:03:40.985Z,0.60
2022-11-22T10:06:36.276Z,0.47
2022-11-22T10:09:39.532Z,0.60
2022-11-22T10:12:42.943Z,0.85
2022-11-22T10:16:00.249Z,1.05
2022-11-22T10:19:01.229Z,0.70
2022-11-22T10:21:49.075Z,0.93
2022-11-22T10:24:36.699Z,1.40
2022-11-22T10:27:28.804Z,1.30
2022-11-22T10:30:20.269Z,1.40
2022-11-22T10:33:22.100Z,1.15
2022-11-22T10:36:34.539Z,1.30
2022-11-22T10:39:52.070Z,1.02
2022-11-22T10:43:07.982Z,0.80
2022-11-22T10:46:07.463Z,0.90
2022-11-22T10:49:17.991Z,1.48
2022-11-22T10:52:21.800Z,1.40
2022-11-22T10:55:22.488Z,1.50
2022-11-22T10:58:55.086Z,1.08
2022-11-22T11:01:59.699Z,0.75
2022-11-22T11:04:50.369Z,0.60
2022-11-22T11:07:42.225Z,0.73
2022-11-22T11:10:37.422Z,1.23
2022-11-22T11:13:34.360Z,0.75
2022-11-22T11:16:26.460Z,0.85
2022-11-22T11:22:08.449Z,0.52
2022-11-22T11:24:56.067Z,0.50
2022-11-22T11:27:43.775Z,0.88
2022-11-22T11:30:46.912Z,0.73
2022-11-22T11:33:40.416Z,0.88
2022-11-22T11:36:28.112Z,0.93
2022-11-22T11:39:24.809Z,1.08
2022-11-22T11:42:28.341Z,1.25
2022-11-22T11:45:29.372Z,1.15
2022-11-22T11:48:37.926Z,1.15
2022-11-22T11:51:38.174Z,0.90
2022-11-22T11:54:28.695Z,1.10
2022-11-22T11:57:20.855Z,0.90
2022-11-22T12:03:09.585Z,0.63
2022-11-22T12:06:14.265Z,0.70
2022-11-22T12:09:22.986Z,0.60
2022-11-22T12:12:41.590Z,0.90
2022-11-22T12:15:44.153Z,0.85
2022-11-22T12:18:52.518Z,0.88
2022-11-22T12:22:04.067Z,1.17
2022-11-22T12:25:24.465Z,1.02
2022-11-22T12:28:26.547Z,1.30
2022-11-22T12:31:39.848Z,1.65
2022-11-22T12:34:35.497Z,2.13
2022-11-22T12:37:34.690Z,1.33
2022-11-22T12:40:29.337Z,2.10
2022-11-22T12:43:23.212Z,2.83
2022-11-22T12:46:32.080Z,3.70
2022-11-22T12:49:34.499Z,4.35
2022-11-22T12:52:48.028Z,3.08
2022-11-22T12:56:02.724Z,3.60
2022-11-22T12:59:28.799Z,4.10
2022-11-22T13:02:34.902Z,3.67
2022-11-22T13:05:27.206Z,3.50
2022-11-22T13:11:30.048Z,2.67
2022-11-22T13:14:24.015Z,1.92
2022-11-22T13:17:14.784Z,2.35
2022-11-22T13:20:20.080Z,2.10
2022-11-22T13:23:19.831Z,4.13
2022-11-22T13:26:17.783Z,2.83
2022-11-22T13:29:20.375Z,2.75
2022-11-22T13:32:13.772Z,2.78
2022-11-22T13:35:24.231Z,2.55
2022-11-22T13:38:16.676Z,2.80
2022-11-22T13:41:51.687Z,2.95
2022-11-22T13:44:51.795Z,2.72
2022-11-22T13:47:43.647Z,3.00
2022-11-22T13:50:40.482Z,2.60
2022-11-22T13:53:31.390Z,3.58
2022-11-22T13:56:21.758Z,4.20
2022-11-22T13:59:18.608Z,3.25
2022-11-22T14:02:22.688Z,3.47
2022-11-22T14:05:40.942Z,2.72
2022-11-22T14:08:44.228Z,1.80
2022-11-22T14:14:43.830Z,1.20
2022-11-22T14:17:41.805Z,2.10
2022-11-22T14:21:24.139Z,1.80
2022-11-22T14:24:30.213Z,1.00
2022-11-22T14:27:28.361Z,2.30
2022-11-22T14:30:22.997Z,2.95
2022-11-22T14:33:19.482Z,1.55
2022-11-22T14:36:07.245Z,1.85
2022-11-22T14:38:55.066Z,1.75
2022-11-22T14:41:44.080Z,2.60
2022-11-22T14:44:36.132Z,3.38
2022-11-22T14:47:24.202Z,2.65
2022-11-22T14:50:44.763Z,2.90
2022-11-22T14:53:49.526Z,4.75
2022-11-22T14:56:38.076Z,8.45
2022-11-22T15:00:03.094Z,12.02
2022-11-22T15:03:23.999Z,9.95
2022-11-22T15:09:16.117Z,13.55
2022-11-22T15:10:36.455Z,10.07
2022-11-22T15:13:36.032Z,7.72
2022-11-22T15:58:13.795Z,13.40
2022-11-22T16:01:19.889Z,11.38
2022-11-22T16:04:29.884Z,8.65
2022-11-22T16:07:35.502Z,5.60
2022-11-22T16:10:26.183Z,5.05
2022-11-22T16:13:19.890Z,5.40
2022-11-22T16:16:13.619Z,3.25
2022-11-22T16:19:24.225Z,3.13
2022-11-22T16:22:29.678Z,2.45
2022-11-22T16:25:51.033Z,2.60
2022-11-22T16:28:38.755Z,2.88
2022-11-22T16:31:34.459Z,3.30
2022-11-22T16:34:22.139Z,2.47
2022-11-22T16:37:37.930Z,3.28
2022-11-22T16:40:27.494Z,2.60
2022-11-22T16:43:19.223Z,2.35
2022-11-22T16:46:07.116Z,2.38
2022-11-22T16:48:56.570Z,3.33
2022-11-22T16:51:44.999Z,4.50
2022-11-22T16:54:35.762Z,3.97
2022-11-22T16:57:23.534Z,4.00
2022-11-22T17:00:11.812Z,3.20
2022-11-22T17:03:01.499Z,5.38
2022-11-22T17:05:49.843Z,3.70
2022-11-22T17:08:37.531Z,5.35
2022-11-22T17:11:30.801Z,4.55
2022-11-22T17:14:19.113Z,5.22
2022-11-22T17:17:06.929Z,6.40
2022-11-22T17:19:54.599Z,5.63
2022-11-22T17:22:43.571Z,4.70
2022-11-22T17:25:31.349Z,5.38
2022-11-22T17:28:19.389Z,4.72
2022-11-22T17:31:18.518Z,3.72
2022-11-22T17:34:06.253Z,4.53
2022-11-22T17:36:53.924Z,3.00
2022-11-22T17:39:41.714Z,3.47
2022-11-22T17:42:29.462Z,3.60
2022-11-22T17:45:17.494Z,3.35
2022-11-22T17:48:05.631Z,4.28
2022-11-22T17:50:53.359Z,4.53
2022-11-22T17:53:41.620Z,4.60
2022-11-22T17:56:30.726Z,4.57
2022-11-22T17:59:18.442Z,5.30
2022-11-22T18:02:06.151Z,5.25
2022-11-22T18:04:54.955Z,4.75
2022-11-22T18:07:45.177Z,5.05
2022-11-22T18:10:32.856Z,4.70
2022-11-22T18:13:22.178Z,5.10
2022-11-22T18:16:15.824Z,4.13
2022-11-22T18:19:03.655Z,4.05
2022-11-22T18:21:51.400Z,5.15
2022-11-22T18:24:39.166Z,5.97
2022-11-22T18:27:26.953Z,5.32
2022-11-22T18:30:15.434Z,5.38
2022-11-22T18:33:05.930Z,6.13
2022-11-22T18:35:59.922Z,5.95
2022-11-22T18:38:50.627Z,6.15
2022-11-22T18:41:43.955Z,5.13
2022-11-22T18:44:31.820Z,5.60
2022-11-22T18:47:21.950Z,5.78
2022-11-22T18:50:12.363Z,6.50
2022-11-22T18:53:01.353Z,7.13
2022-11-22T18:55:49.077Z,7.10
2022-11-22T18:58:37.960Z,7.55
2022-11-22T19:01:26.582Z,6.78
2022-11-22T19:04:15.896Z,8.70
2022-11-22T19:07:03.744Z,8.00
2022-11-22T19:09:51.701Z,8.48
2022-11-22T19:12:39.433Z,8.38
2022-11-22T19:15:27.461Z,8.15
2022-11-22T19:18:17.133Z,8.23
2022-11-22T19:21:18.917Z,9.32
2022-11-22T19:24:06.906Z,12.00
2022-11-22T19:26:57.109Z,13.38
2022-11-22T19:29:45.133Z,11.50
2022-11-22T19:32:32.919Z,10.38
2022-11-22T19:35:27.093Z,9.52
2022-11-22T19:38:20.140Z,9.27
2022-11-22T19:41:09.999Z,10.02
2022-11-22T19:43:57.814Z,9.93
2022-11-22T19:46:45.640Z,8.82
2022-11-22T19:49:34.451Z,9.18
2022-11-22T19:52:22.095Z,8.95
2022-11-22T19:55:13.098Z,9.13
2022-11-22T19:58:01.178Z,9.55
2022-11-22T20:00:49.034Z,8.18
2022-11-22T20:03:38.844Z,7.45
2022-11-22T20:06:27.962Z,9.15
2022-11-22T20:09:16.239Z,9.90
2022-11-22T20:12:04.037Z,9.93
2022-11-22T20:14:56.392Z,9.93
2022-11-22T20:17:47.191Z,9.60
2022-11-22T20:20:35.010Z,11.43
2022-11-22T20:23:25.499Z,11.15
2022-11-22T20:26:16.345Z,11.80
2022-11-22T20:29:06.930Z,10.60
2022-11-22T20:31:56.412Z,9.60
2022-11-22T20:34:44.139Z,9.95
2022-11-22T20:37:34.866Z,9.90
2022-11-22T20:40:22.589Z,11.68
2022-11-22T20:43:13.251Z,10.40
2022-11-22T20:46:05.340Z,9.73
2022-11-22T20:49:04.485Z,11.90
2022-11-22T20:51:52.421Z,11.98
2022-11-22T20:54:40.037Z,13.00
2022-11-22T20:57:28.361Z,10.82
2022-11-22T21:00:16.846Z,10.20
2022-11-22T21:03:04.701Z,9.82
2022-11-22T21:05:54.513Z,11.43
2022-11-22T21:08:42.368Z,9.25
2022-11-22T21:11:31.161Z,9.52
2022-11-22T21:14:21.138Z,10.15
2022-11-22T21:17:35.853Z,10.30
2022-11-22T21:20:16.741Z,9.10
2022-11-22T21:23:05.338Z,9.90
2022-11-22T21:25:53.027Z,8.95
2022-11-22T21:28:40.693Z,8.98
2022-11-22T21:31:28.705Z,10.05
2022-11-22T21:34:16.395Z,8.95
2022-11-22T21:37:04.079Z,8.73
2022-11-22T21:39:51.737Z,8.65
2022-11-22T21:42:41.029Z,9.05
2022-11-22T21:45:28.734Z,8.25
2022-11-22T21:48:16.718Z,10.40
2022-11-22T21:51:04.405Z,7.72
2022-11-22T21:53:52.626Z,9.02
2022-11-22T21:56:40.248Z,7.07
2022-11-22T21:59:27.989Z,7.47
2022-11-22T22:02:16.354Z,8.32
2022-11-22T22:05:07.494Z,9.93
2022-11-22T22:07:55.208Z,8.60
2022-11-22T22:10:43.145Z,8.88
2022-11-22T22:13:31.255Z,8.60
2022-11-22T22:16:19.507Z,8.95
2022-11-22T22:19:09.539Z,7.93
2022-11-22T22:21:57.309Z,7.60
2022-11-22T22:24:45.121Z,8.95
2022-11-22T22:27:33.731Z,9.05
2022-11-22T22:30:23.203Z,7.70
2022-11-22T22:33:10.916Z,8.65
2022-11-22T22:35:59.914Z,10.45
2022-11-22T22:38:48.209Z,11.40
2022-11-22T22:41:36.675Z,7.93
2022-11-22T22:44:26.347Z,8.02
2022-11-22T22:47:14.455Z,7.47
2022-11-22T22:50:02.206Z,7.70
2022-11-22T22:52:49.803Z,7.18
2022-11-22T22:55:38.084Z,7.55
2022-11-22T22:58:25.847Z,7.25
2022-11-22T23:01:17.842Z,7.45
2022-11-22T23:04:05.915Z,6.65
2022-11-22T23:06:53.609Z,7.38
2022-11-22T23:09:44.273Z,6.25
2022-11-22T23:12:31.929Z,5.75
2022-11-22T23:15:33.216Z,6.25
2022-11-22T23:18:26.000Z,5.95
2022-11-22T23:21:15.885Z,5.82
2022-11-22T23:24:04.021Z,5.70
2022-11-22T23:26:51.780Z,5.63
2022-11-22T23:29:39.497Z,5.50
2022-11-22T23:32:31.383Z,5.60
2022-11-22T23:35:19.148Z,5.78
2022-11-22T23:38:06.810Z,4.93
2022-11-22T23:40:54.514Z,5.10
2022-11-22T23:43:44.674Z,5.13
2022-11-22T23:46:34.734Z,5.40
2022-11-22T23:49:22.417Z,7.53
2022-11-22T23:52:10.019Z,5.40
2022-11-22T23:54:57.754Z,5.15
2022-11-22T23:57:45.458Z,6.68
